sensor_id;sensor_type;location;lat;lon;timestamp;P1;durP1;ratioP1;P2;durP2;ratioP2
12072;SDS011;6098;49.004;8.372;2022-12-18T00:01:20;59.76;;;23.97;;
12072;SDS011;6098;49.004;8.372;2022-12-18T00:16:09;51.38;;;23.89;;
12072;SDS011;6098;49.004;8.372;2022-12-18T00:31:00;50.98;;;22.81;;
12072;SDS011;6098;49.004;8.372;2022-12-18T00:45:51;53.49;;;22.21;;
12072;SDS011;6098;49.004;8.372;2022-12-18T01:00:40;48.22;;;21.91;;
12072;SDS011;6098;49.004;8.372;2022-12-18T01:15:28;46.01;;;20.43;;
12072;SDS011;6098;49.004;8.372;2022-12-18T01:30:16;44.71;;;20.08;;
12072;SDS011;6098;49.004;8.372;2022-12-18T02:00:07;51.29;;;22.70;;
12072;SDS011;6098;49.004;8.372;2022-12-18T02:15:09;52.61;;;21.72;;
12072;SDS011;6098;49.004;8.372;2022-12-18T02:45:09;44.73;;;20.04;;
12072;SDS011;6098;49.004;8.372;2022-12-18T03:00:02;45.18;;;19.84;;
12072;SDS011;6098;49.004;8.372;2022-12-18T03:14:58;46.81;;;20.44;;
12072;SDS011;6098;49.004;8.372;2022-12-18T03:29:46;45.20;;;20.02;;
12072;SDS011;6098;49.004;8.372;2022-12-18T03:44:39;42.29;;;20.27;;
12072;SDS011;6098;49.004;8.372;2022-12-18T03:59:26;46.02;;;18.59;;
12072;SDS011;6098;49.004;8.372;2022-12-18T04:14:15;45.32;;;17.81;;
12072;SDS011;6098;49.004;8.372;2022-12-18T04:29:04;42.01;;;19.82;;
12072;SDS011;6098;49.004;8.372;2022-12-18T04:43:53;50.43;;;21.02;;
12072;SDS011;6098;49.004;8.372;2022-12-18T04:58:43;55.58;;;20.96;;
12072;SDS011;6098;49.004;8.372;2022-12-18T05:13:31;52.27;;;21.04;;
12072;SDS011;6098;49.004;8.372;2022-12-18T05:28:20;57.61;;;22.99;;
12072;SDS011;6098;49.004;8.372;2022-12-18T05:43:10;56.71;;;22.50;;
12072;SDS011;6098;49.004;8.372;2022-12-18T05:57:59;59.07;;;23.66;;
12072;SDS011;6098;49.004;8.372;2022-12-18T06:12:49;50.18;;;22.21;;
12072;SDS011;6098;49.004;8.372;2022-12-18T06:27:38;57.92;;;21.48;;
12072;SDS011;6098;49.004;8.372;2022-12-18T06:42:28;51.03;;;20.22;;
12072;SDS011;6098;49.004;8.372;2022-12-18T06:57:17;49.20;;;19.72;;
12072;SDS011;6098;49.004;8.372;2022-12-18T07:12:07;46.83;;;20.34;;
12072;SDS011;6098;49.004;8.372;2022-12-18T07:26:56;54.63;;;20.24;;
12072;SDS011;6098;49.004;8.372;2022-12-18T07:41:45;52.09;;;20.82;;
12072;SDS011;6098;49.004;8.372;2022-12-18T07:56:40;51.38;;;20.17;;
12072;SDS011;6098;49.004;8.372;2022-12-18T08:11:29;55.36;;;21.27;;
12072;SDS011;6098;49.004;8.372;2022-12-18T08:26:18;55.73;;;19.72;;
12072;SDS011;6098;49.004;8.372;2022-12-18T08:41:08;60.91;;;20.26;;
12072;SDS011;6098;49.004;8.372;2022-12-18T08:55:56;58.17;;;21.77;;
12072;SDS011;6098;49.004;8.372;2022-12-18T09:10:44;60.73;;;22.31;;
12072;SDS011;6098;49.004;8.372;2022-12-18T09:25:34;51.68;;;20.99;;
12072;SDS011;6098;49.004;8.372;2022-12-18T09:40:23;58.08;;;22.77;;
12072;SDS011;6098;49.004;8.372;2022-12-18T10:10:27;51.36;;;20.14;;
12072;SDS011;6098;49.004;8.372;2022-12-18T10:40:18;45.83;;;20.50;;
12072;SDS011;6098;49.004;8.372;2022-12-18T10:55:12;52.08;;;19.62;;
12072;SDS011;6098;49.004;8.372;2022-12-18T11:10:00;58.71;;;21.84;;
12072;SDS011;6098;49.004;8.372;2022-12-18T11:25:03;62.91;;;22.86;;
12072;SDS011;6098;49.004;8.372;2022-12-18T11:39:58;60.60;;;22.12;;
12072;SDS011;6098;49.004;8.372;2022-12-18T11:54:56;58.68;;;23.21;;
12072;SDS011;6098;49.004;8.372;2022-12-18T12:10:04;56.86;;;22.59;;
12072;SDS011;6098;49.004;8.372;2022-12-18T12:40:17;59.37;;;24.08;;
12072;SDS011;6098;49.004;8.372;2022-12-18T12:55:07;61.17;;;24.07;;
12072;SDS011;6098;49.004;8.372;2022-12-18T13:10:11;51.81;;;23.12;;
12072;SDS011;6098;49.004;8.372;2022-12-18T13:55:31;60.29;;;26.10;;
12072;SDS011;6098;49.004;8.372;2022-12-18T14:10:21;63.96;;;26.26;;
12072;SDS011;6098;49.004;8.372;2022-12-18T14:40:04;54.36;;;24.59;;
12072;SDS011;6098;49.004;8.372;2022-12-18T14:54:54;60.98;;;25.91;;
12072;SDS011;6098;49.004;8.372;2022-12-18T15:09:44;62.31;;;26.83;;
12072;SDS011;6098;49.004;8.372;2022-12-18T15:24:33;64.51;;;26.86;;
12072;SDS011;6098;49.004;8.372;2022-12-18T15:39:22;66.62;;;28.48;;
12072;SDS011;6098;49.004;8.372;2022-12-18T15:54:12;65.34;;;28.64;;
12072;SDS011;6098;49.004;8.372;2022-12-18T16:09:00;71.67;;;29.66;;
12072;SDS011;6098;49.004;8.372;2022-12-18T16:23:50;65.70;;;28.62;;
12072;SDS011;6098;49.004;8.372;2022-12-18T16:38:39;66.57;;;28.56;;
12072;SDS011;6098;49.004;8.372;2022-12-18T16:53:27;59.62;;;26.26;;
12072;SDS011;6098;49.004;8.372;2022-12-18T17:08:17;63.22;;;26.79;;
12072;SDS011;6098;49.004;8.372;2022-12-18T17:23:06;63.49;;;25.67;;
12072;SDS011;6098;49.004;8.372;2022-12-18T17:37:56;63.80;;;26.97;;
12072;SDS011;6098;49.004;8.372;2022-12-18T17:52:45;63.36;;;24.94;;
12072;SDS011;6098;49.004;8.372;2022-12-18T18:07:34;58.94;;;25.80;;
12072;SDS011;6098;49.004;8.372;2022-12-18T18:22:23;69.32;;;27.63;;
12072;SDS011;6098;49.004;8.372;2022-12-18T18:37:13;58.69;;;26.62;;
12072;SDS011;6098;49.004;8.372;2022-12-18T18:52:03;70.62;;;29.52;;
12072;SDS011;6098;49.004;8.372;2022-12-18T19:06:53;63.54;;;25.06;;
12072;SDS011;6098;49.004;8.372;2022-12-18T19:21:43;63.01;;;25.51;;
12072;SDS011;6098;49.004;8.372;2022-12-18T19:36:35;66.04;;;25.86;;
12072;SDS011;6098;49.004;8.372;2022-12-18T19:51:24;66.30;;;26.00;;
12072;SDS011;6098;49.004;8.372;2022-12-18T20:06:17;59.82;;;26.33;;
12072;SDS011;6098;49.004;8.372;2022-12-18T20:21:15;71.42;;;27.44;;
12072;SDS011;6098;49.004;8.372;2022-12-18T20:36:04;59.91;;;24.78;;
12072;SDS011;6098;49.004;8.372;2022-12-18T20:50:57;65.53;;;29.54;;
12072;SDS011;6098;49.004;8.372;2022-12-18T21:05:55;65.89;;;26.84;;
12072;SDS011;6098;49.004;8.372;2022-12-18T21:20:44;63.74;;;25.96;;
12072;SDS011;6098;49.004;8.372;2022-12-18T21:35:34;64.14;;;27.26;;
12072;SDS011;6098;49.004;8.372;2022-12-18T21:50:23;63.29;;;25.96;;
12072;SDS011;6098;49.004;8.372;2022-12-18T22:05:12;60.23;;;26.33;;
12072;SDS011;6098;49.004;8.372;2022-12-18T22:20:03;64.14;;;26.21;;
12072;SDS011;6098;49.004;8.372;2022-12-18T22:34:52;64.36;;;25.66;;
12072;SDS011;6098;49.004;8.372;2022-12-18T22:49:43;65.16;;;27.76;;
12072;SDS011;6098;49.004;8.372;2022-12-18T23:04:32;65.50;;;28.44;;
12072;SDS011;6098;49.004;8.372;2022-12-18T23:19:21;66.22;;;27.14;;
12072;SDS011;6098;49.004;8.372;2022-12-18T23:34:13;60.30;;;26.32;;
12072;SDS011;6098;49.004;8.372;2022-12-18T23:49:02;60.67;;;26.94;;
